sensor_id;sensor_type;location;lat;lon;timestamp;pressure;altitude;pressure_sealevel;temperature;humidity
10948;BME280;5526;42.070;24.752;2023-05-20T00:01:10;99171.53;;;16.18;82.35
10948;BME280;5526;42.070;24.752;2023-05-20T00:03:37;99173.91;;;16.19;82.62
10948;BME280;5526;42.070;24.752;2023-05-20T00:06:05;99165.75;;;16.11;83.54
10948;BME280;5526;42.070;24.752;2023-05-20T00:08:32;99167.13;;;16.08;83.87
10948;BME280;5526;42.070;24.752;2023-05-20T00:10:59;99161.81;;;16.08;83.93
10948;BME280;5526;42.070;24.752;2023-05-20T00:13:26;99164.47;;;16.08;83.98
10948;BME280;5526;42.070;24.752;2023-05-20T00:15:55;99162.38;;;16.05;83.94
10948;BME280;5526;42.070;24.752;2023-05-20T00:18:22;99155.56;;;15.99;84.56
10948;BME280;5526;42.070;24.752;2023-05-20T00:20:49;99161.38;;;16.01;84.92
10948;BME280;5526;42.070;24.752;2023-05-20T00:23:17;99165.38;;;15.99;84.42
10948;BME280;5526;42.070;24.752;2023-05-20T00:25:45;99165.00;;;15.87;84.89
10948;BME280;5526;42.070;24.752;2023-05-20T00:28:12;99163.19;;;15.82;85.15
10948;BME280;5526;42.070;24.752;2023-05-20T00:30:40;99157.31;;;15.85;85.05
10948;BME280;5526;42.070;24.752;2023-05-20T00:33:09;99159.97;;;15.85;84.97
10948;BME280;5526;42.070;24.752;2023-05-20T00:35:37;99159.22;;;15.80;85.97
10948;BME280;5526;42.070;24.752;2023-05-20T00:38:04;99158.50;;;15.74;86.54
10948;BME280;5526;42.070;24.752;2023-05-20T00:40:31;99148.47;;;15.71;86.60
10948;BME280;5526;42.070;24.752;2023-05-20T00:42:59;99146.31;;;15.73;86.85
10948;BME280;5526;42.070;24.752;2023-05-20T00:45:26;99151.69;;;15.68;87.21
10948;BME280;5526;42.070;24.752;2023-05-20T00:47:54;99151.69;;;15.68;86.84
10948;BME280;5526;42.070;24.752;2023-05-20T00:50:25;99142.19;;;15.62;87.40
10948;BME280;5526;42.070;24.752;2023-05-20T00:52:53;99137.69;;;15.63;87.26
10948;BME280;5526;42.070;24.752;2023-05-20T00:55:21;99144.63;;;15.59;87.38
10948;BME280;5526;42.070;24.752;2023-05-20T00:57:48;99133.75;;;15.55;87.35
10948;BME280;5526;42.070;24.752;2023-05-20T01:00:16;99137.97;;;15.61;87.32
10948;BME280;5526;42.070;24.752;2023-05-20T01:02:43;99149.38;;;15.62;86.86
10948;BME280;5526;42.070;24.752;2023-05-20T01:05:11;99147.69;;;15.42;88.06
10948;BME280;5526;42.070;24.752;2023-05-20T01:07:39;99145.38;;;15.36;88.83
10948;BME280;5526;42.070;24.752;2023-05-20T01:10:08;99142.19;;;15.34;89.06
10948;BME280;5526;42.070;24.752;2023-05-20T01:12:39;99142.06;;;15.20;91.24
10948;BME280;5526;42.070;24.752;2023-05-20T01:15:10;99139.56;;;15.05;91.65
10948;BME280;5526;42.070;24.752;2023-05-20T01:17:39;99132.09;;;15.07;91.95
10948;BME280;5526;42.070;24.752;2023-05-20T01:20:10;99138.00;;;14.99;92.76
10948;BME280;5526;42.070;24.752;2023-05-20T01:22:46;99137.03;;;14.90;93.90
10948;BME280;5526;42.070;24.752;2023-05-20T01:25:13;99135.03;;;14.72;95.39
10948;BME280;5526;42.070;24.752;2023-05-20T01:27:40;99133.69;;;14.75;94.73
10948;BME280;5526;42.070;24.752;2023-05-20T01:30:08;99136.59;;;14.78;94.69
10948;BME280;5526;42.070;24.752;2023-05-20T01:32:38;99139.78;;;14.75;95.42
10948;BME280;5526;42.070;24.752;2023-05-20T01:35:08;99146.56;;;14.53;97.84
10948;BME280;5526;42.070;24.752;2023-05-20T01:37:38;99142.16;;;14.38;99.19
10948;BME280;5526;42.070;24.752;2023-05-20T01:40:08;99137.66;;;14.39;99.69
10948;BME280;5526;42.070;24.752;2023-05-20T01:42:35;99130.75;;;14.43;99.36
10948;BME280;5526;42.070;24.752;2023-05-20T01:45:05;99134.16;;;14.48;99.68
10948;BME280;5526;42.070;24.752;2023-05-20T01:47:33;99137.31;;;14.50;98.81
10948;BME280;5526;42.070;24.752;2023-05-20T01:50:00;99132.81;;;14.51;98.76
10948;BME280;5526;42.070;24.752;2023-05-20T01:52:28;99132.56;;;14.47;98.90
10948;BME280;5526;42.070;24.752;2023-05-20T01:54:56;99121.22;;;14.42;98.97
10948;BME280;5526;42.070;24.752;2023-05-20T01:57:25;99122.59;;;14.34;99.73
10948;BME280;5526;42.070;24.752;2023-05-20T01:59:52;99125.00;;;14.31;99.63
10948;BME280;5526;42.070;24.752;2023-05-20T02:02:19;99124.72;;;14.32;99.81
10948;BME280;5526;42.070;24.752;2023-05-20T02:04:48;99122.34;;;14.31;100.00
10948;BME280;5526;42.070;24.752;2023-05-20T02:07:17;99117.59;;;14.28;100.00
10948;BME280;5526;42.070;24.752;2023-05-20T02:09:44;99122.66;;;14.24;100.00
10948;BME280;5526;42.070;24.752;2023-05-20T02:12:12;99116.81;;;14.27;100.00
10948;BME280;5526;42.070;24.752;2023-05-20T02:14:43;99111.53;;;14.27;100.00
10948;BME280;5526;42.070;24.752;2023-05-20T02:17:11;99109.91;;;14.26;100.00
10948;BME280;5526;42.070;24.752;2023-05-20T02:19:39;99104.13;;;14.24;100.00
10948;BME280;5526;42.070;24.752;2023-05-20T02:22:06;99105.19;;;14.23;100.00
10948;BME280;5526;42.070;24.752;2023-05-20T02:24:34;99108.88;;;14.22;100.00
10948;BME280;5526;42.070;24.752;2023-05-20T02:27:01;99107.53;;;14.20;100.00
10948;BME280;5526;42.070;24.752;2023-05-20T02:29:29;99114.72;;;14.19;100.00
10948;BME280;5526;42.070;24.752;2023-05-20T02:31:58;99108.88;;;14.22;100.00
10948;BME280;5526;42.070;24.752;2023-05-20T02:34:26;99091.47;;;14.11;100.00
10948;BME280;5526;42.070;24.752;2023-05-20T02:36:55;99103.59;;;14.17;100.00
10948;BME280;5526;42.070;24.752;2023-05-20T02:39:22;99107.03;;;14.18;100.00
10948;BME280;5526;42.070;24.752;2023-05-20T02:41:49;99092.78;;;14.14;100.00
10948;BME280;5526;42.070;24.752;2023-05-20T02:44:17;99090.41;;;14.12;100.00
10948;BME280;5526;42.070;24.752;2023-05-20T02:46:44;99094.59;;;14.18;100.00
10948;BME280;5526;42.070;24.752;2023-05-20T02:49:12;99099.34;;;14.26;100.00
10948;BME280;5526;42.070;24.752;2023-05-20T02:51:40;99104.88;;;14.30;100.00
10948;BME280;5526;42.070;24.752;2023-05-20T02:54:07;99100.41;;;14.25;100.00
10948;BME280;5526;42.070;24.752;2023-05-20T02:56:34;99100.94;;;14.22;100.00
10948;BME280;5526;42.070;24.752;2023-05-20T02:59:01;99108.38;;;14.15;100.00
10948;BME280;5526;42.070;24.752;2023-05-20T03:01:29;99111.81;;;14.21;100.00
10948;BME280;5526;42.070;24.752;2023-05-20T03:03:58;99111.53;;;14.27;100.00
10948;BME280;5526;42.070;24.752;2023-05-20T03:06:27;99109.38;;;14.34;100.00
10948;BME280;5526;42.070;24.752;2023-05-20T03:08:56;99115.72;;;14.33;100.00
10948;BME280;5526;42.070;24.752;2023-05-20T03:11:24;99117.06;;;14.31;100.00
10948;BME280;5526;42.070;24.752;2023-05-20T03:13:51;99121.25;;;14.37;100.00
10948;BME280;5526;42.070;24.752;2023-05-20T03:16:18;99127.81;;;14.44;100.00
10948;BME280;5526;42.070;24.752;2023-05-20T03:18:46;99126.47;;;14.47;100.00
10948;BME280;5526;42.070;24.752;2023-05-20T03:21:14;99126.44;;;14.52;100.00
10948;BME280;5526;42.070;24.752;2023-05-20T03:23:42;99117.19;;;14.54;100.00
10948;BME280;5526;42.070;24.752;2023-05-20T03:26:10;99131.44;;;14.58;100.00
10948;BME280;5526;42.070;24.752;2023-05-20T03:28:37;99136.09;;;14.71;100.00
10948;BME280;5526;42.070;24.752;2023-05-20T03:31:04;99143.69;;;14.88;100.00
10948;BME280;5526;42.070;24.752;2023-05-20T03:33:34;99152.38;;;14.93;100.00
10948;BME280;5526;42.070;24.752;2023-05-20T03:36:01;99155.84;;;14.89;100.00
10948;BME280;5526;42.070;24.752;2023-05-20T03:38:29;99165.69;;;14.83;100.00
10948;BME280;5526;42.070;24.752;2023-05-20T03:40:58;99166.22;;;14.85;100.00
10948;BME280;5526;42.070;24.752;2023-05-20T03:43:26;99168.88;;;14.80;100.00
10948;BME280;5526;42.070;24.752;2023-05-20T03:45:53;99174.72;;;14.82;100.00
10948;BME280;5526;42.070;24.752;2023-05-20T03:48:22;99175.22;;;14.84;100.00
10948;BME280;5526;42.070;24.752;2023-05-20T03:50:49;99175.78;;;14.81;100.00
10948;BME280;5526;42.070;24.752;2023-05-20T03:53:17;99171.81;;;14.79;100.00
10948;BME280;5526;42.070;24.752;2023-05-20T03:55:45;99170.50;;;14.81;100.00
10948;BME280;5526;42.070;24.752;2023-05-20T03:58:14;99148.81;;;14.74;100.00
10948;BME280;5526;42.070;24.752;2023-05-20T04:00:42;99180.94;;;15.01;100.00
10948;BME280;5526;42.070;24.752;2023-05-20T04:03:10;99174.28;;;15.04;100.00
10948;BME280;5526;42.070;24.752;2023-05-20T04:05:38;99141.44;;;15.00;100.00
10948;BME280;5526;42.070;24.752;2023-05-20T04:08:06;99164.97;;;15.40;100.00
10948;BME280;5526;42.070;24.752;2023-05-20T04:10:35;99172.88;;;15.45;100.00
10948;BME280;5526;42.070;24.752;2023-05-20T04:13:03;99177.84;;;15.51;100.00
10948;BME280;5526;42.070;24.752;2023-05-20T04:15:34;99169.59;;;15.53;100.00
10948;BME280;5526;42.070;24.752;2023-05-20T04:18:02;99167.56;;;15.45;100.00
10948;BME280;5526;42.070;24.752;2023-05-20T04:20:30;99172.53;;;15.51;100.00
10948;BME280;5526;42.070;24.752;2023-05-20T04:22:58;99170.25;;;15.68;100.00
10948;BME280;5526;42.070;24.752;2023-05-20T04:25:26;99163.81;;;15.74;100.00
10948;BME280;5526;42.070;24.752;2023-05-20T04:27:53;99177.53;;;15.81;100.00
10948;BME280;5526;42.070;24.752;2023-05-20T04:30:22;99181.09;;;15.72;100.00
10948;BME280;5526;42.070;24.752;2023-05-20T04:32:51;99169.50;;;16.10;100.00
10948;BME280;5526;42.070;24.752;2023-05-20T04:35:20;99173.09;;;16.42;99.74
10948;BME280;5526;42.070;24.752;2023-05-20T04:37:50;99174.22;;;16.55;97.94
10948;BME280;5526;42.070;24.752;2023-05-20T04:40:19;99172.44;;;16.50;98.22
10948;BME280;5526;42.070;24.752;2023-05-20T04:42:47;99174.66;;;16.62;97.01
10948;BME280;5526;42.070;24.752;2023-05-20T04:45:15;99175.22;;;16.59;96.71
10948;BME280;5526;42.070;24.752;2023-05-20T04:47:43;99173.94;;;16.75;95.26
10948;BME280;5526;42.070;24.752;2023-05-20T04:50:12;99179.41;;;17.16;94.43
10948;BME280;5526;42.070;24.752;2023-05-20T04:52:40;99176.50;;;17.31;92.44
10948;BME280;5526;42.070;24.752;2023-05-20T04:55:09;99185.75;;;17.33;92.21
10948;BME280;5526;42.070;24.752;2023-05-20T04:57:36;99179.53;;;17.56;92.07
10948;BME280;5526;42.070;24.752;2023-05-20T05:00:07;99178.47;;;17.57;92.48
10948;BME280;5526;42.070;24.752;2023-05-20T05:02:35;99180.75;;;17.91;91.15
10948;BME280;5526;42.070;24.752;2023-05-20T05:05:02;99180.34;;;18.11;89.15
10948;BME280;5526;42.070;24.752;2023-05-20T05:07:31;99184.06;;;18.37;87.98
10948;BME280;5526;42.070;24.752;2023-05-20T05:09:58;99194.13;;;18.40;86.10
10948;BME280;5526;42.070;24.752;2023-05-20T05:12:25;99191.53;;;18.84;83.93
10948;BME280;5526;42.070;24.752;2023-05-20T05:14:52;99180.72;;;19.02;82.29
10948;BME280;5526;42.070;24.752;2023-05-20T05:17:19;99188.53;;;19.21;80.60
10948;BME280;5526;42.070;24.752;2023-05-20T05:19:46;99187.09;;;19.37;79.66
10948;BME280;5526;42.070;24.752;2023-05-20T05:22:13;99185.34;;;19.63;77.35
10948;BME280;5526;42.070;24.752;2023-05-20T05:24:42;99182.13;;;19.83;76.45
10948;BME280;5526;42.070;24.752;2023-05-20T05:27:09;99190.25;;;19.78;75.93
10948;BME280;5526;42.070;24.752;2023-05-20T05:29:36;99185.88;;;19.82;76.28
10948;BME280;5526;42.070;24.752;2023-05-20T05:32:04;99191.38;;;20.24;74.86
10948;BME280;5526;42.070;24.752;2023-05-20T05:34:31;99191.25;;;20.38;73.04
10948;BME280;5526;42.070;24.752;2023-05-20T05:36:58;99198.00;;;20.27;73.09
10948;BME280;5526;42.070;24.752;2023-05-20T05:39:25;99197.88;;;20.57;71.77
10948;BME280;5526;42.070;24.752;2023-05-20T05:41:54;99195.19;;;20.40;71.70
10948;BME280;5526;42.070;24.752;2023-05-20T05:44:21;99204.88;;;20.11;73.22
10948;BME280;5526;42.070;24.752;2023-05-20T05:46:48;99207.88;;;20.18;73.09
10948;BME280;5526;42.070;24.752;2023-05-20T05:49:15;99192.97;;;20.42;72.54
10948;BME280;5526;42.070;24.752;2023-05-20T05:51:42;99197.25;;;20.77;71.52
10948;BME280;5526;42.070;24.752;2023-05-20T05:54:09;99193.50;;;21.13;69.92
10948;BME280;5526;42.070;24.752;2023-05-20T05:56:36;99185.72;;;21.45;69.20
10948;BME280;5526;42.070;24.752;2023-05-20T06:49:35;99168.56;;;23.36;58.49
10948;BME280;5526;42.070;24.752;2023-05-20T06:52:02;99162.09;;;23.37;59.33
10948;BME280;5526;42.070;24.752;2023-05-20T06:54:29;99163.31;;;23.27;58.04
10948;BME280;5526;42.070;24.752;2023-05-20T06:56:58;99165.66;;;23.29;59.09
10948;BME280;5526;42.070;24.752;2023-05-20T06:59:25;99160.41;;;23.32;58.84
10948;BME280;5526;42.070;24.752;2023-05-20T07:01:52;99167.78;;;23.23;57.03
10948;BME280;5526;42.070;24.752;2023-05-20T07:04:20;99167.41;;;23.81;56.21
10948;BME280;5526;42.070;24.752;2023-05-20T07:06:48;99172.50;;;24.07;54.68
10948;BME280;5526;42.070;24.752;2023-05-20T07:09:15;99178.41;;;24.12;54.47
10948;BME280;5526;42.070;24.752;2023-05-20T07:11:42;99173.75;;;24.61;53.77
10948;BME280;5526;42.070;24.752;2023-05-20T07:14:09;99178.47;;;24.52;53.40
10948;BME280;5526;42.070;24.752;2023-05-20T07:16:37;99172.06;;;24.69;51.94
10948;BME280;5526;42.070;24.752;2023-05-20T07:19:04;99168.59;;;24.56;51.15
10948;BME280;5526;42.070;24.752;2023-05-20T07:21:31;99172.44;;;24.43;51.88
10948;BME280;5526;42.070;24.752;2023-05-20T07:24:00;99161.75;;;24.98;52.28
10948;BME280;5526;42.070;24.752;2023-05-20T07:26:27;99166.88;;;25.03;54.69
10948;BME280;5526;42.070;24.752;2023-05-20T07:28:58;99168.28;;;25.13;54.13
10948;BME280;5526;42.070;24.752;2023-05-20T07:31:25;99163.84;;;25.05;55.64
10948;BME280;5526;42.070;24.752;2023-05-20T07:33:52;99169.13;;;25.01;54.91
10948;BME280;5526;42.070;24.752;2023-05-20T07:36:19;99179.75;;;25.10;56.21
10948;BME280;5526;42.070;24.752;2023-05-20T07:38:46;99183.84;;;25.47;56.65
10948;BME280;5526;42.070;24.752;2023-05-20T07:41:15;99181.50;;;25.61;55.54
10948;BME280;5526;42.070;24.752;2023-05-20T07:43:42;99178.72;;;25.73;54.79
10948;BME280;5526;42.070;24.752;2023-05-20T07:46:09;99176.13;;;25.76;54.57
10948;BME280;5526;42.070;24.752;2023-05-20T07:48:36;99177.34;;;25.94;54.41
10948;BME280;5526;42.070;24.752;2023-05-20T07:51:03;99175.50;;;25.98;53.12
10948;BME280;5526;42.070;24.752;2023-05-20T07:53:31;99177.59;;;25.74;53.80
10948;BME280;5526;42.070;24.752;2023-05-20T07:55:58;99185.59;;;25.86;52.96
10948;BME280;5526;42.070;24.752;2023-05-20T07:58:26;99176.19;;;26.11;50.95
10948;BME280;5526;42.070;24.752;2023-05-20T08:00:54;99177.16;;;25.87;51.63
10948;BME280;5526;42.070;24.752;2023-05-20T08:03:21;99178.81;;;25.61;52.96
10948;BME280;5526;42.070;24.752;2023-05-20T08:05:48;99171.50;;;25.18;53.68
10948;BME280;5526;42.070;24.752;2023-05-20T08:08:15;99177.84;;;25.69;53.50
10948;BME280;5526;42.070;24.752;2023-05-20T08:10:43;99172.72;;;25.48;54.67
10948;BME280;5526;42.070;24.752;2023-05-20T08:13:10;99183.31;;;25.41;55.33
10948;BME280;5526;42.070;24.752;2023-05-20T08:15:38;99179.25;;;25.20;53.44
10948;BME280;5526;42.070;24.752;2023-05-20T08:18:05;99184.72;;;25.51;53.58
10948;BME280;5526;42.070;24.752;2023-05-20T08:20:33;99176.75;;;25.70;51.22
10948;BME280;5526;42.070;24.752;2023-05-20T08:23:00;99169.34;;;25.98;49.79
10948;BME280;5526;42.070;24.752;2023-05-20T08:25:27;99173.78;;;26.06;46.66
10948;BME280;5526;42.070;24.752;2023-05-20T08:27:54;99162.59;;;26.23;48.28
10948;BME280;5526;42.070;24.752;2023-05-20T08:30:21;99172.56;;;26.38;48.03
10948;BME280;5526;42.070;24.752;2023-05-20T08:32:50;99166.56;;;25.94;50.40
10948;BME280;5526;42.070;24.752;2023-05-20T08:35:17;99154.72;;;25.99;48.81
10948;BME280;5526;42.070;24.752;2023-05-20T08:37:44;99161.00;;;25.87;47.38
10948;BME280;5526;42.070;24.752;2023-05-20T08:40:12;99156.97;;;26.12;46.81
10948;BME280;5526;42.070;24.752;2023-05-20T08:42:41;99165.09;;;25.97;47.18
10948;BME280;5526;42.070;24.752;2023-05-20T08:45:10;99150.53;;;26.17;48.32
10948;BME280;5526;42.070;24.752;2023-05-20T08:47:40;99163.00;;;26.40;46.28
10948;BME280;5526;42.070;24.752;2023-05-20T08:50:11;99161.84;;;26.76;45.27
10948;BME280;5526;42.070;24.752;2023-05-20T08:52:42;99169.91;;;26.57;43.62
10948;BME280;5526;42.070;24.752;2023-05-20T08:55:13;99164.41;;;26.69;44.48
10948;BME280;5526;42.070;24.752;2023-05-20T08:57:41;99159.84;;;27.11;45.19
10948;BME280;5526;42.070;24.752;2023-05-20T09:00:12;99166.72;;;27.27;44.31
10948;BME280;5526;42.070;24.752;2023-05-20T09:02:42;99161.88;;;27.17;43.71
10948;BME280;5526;42.070;24.752;2023-05-20T09:05:11;99162.88;;;27.28;43.90
10948;BME280;5526;42.070;24.752;2023-05-20T09:07:38;99157.91;;;27.53;44.19
10948;BME280;5526;42.070;24.752;2023-05-20T09:10:08;99153.66;;;26.91;43.09
10948;BME280;5526;42.070;24.752;2023-05-20T09:12:38;99149.03;;;26.73;44.79
10948;BME280;5526;42.070;24.752;2023-05-20T09:15:06;99155.81;;;26.82;44.35
10948;BME280;5526;42.070;24.752;2023-05-20T09:17:34;99142.66;;;26.81;44.41
10948;BME280;5526;42.070;24.752;2023-05-20T09:20:05;99154.31;;;26.66;46.60
10948;BME280;5526;42.070;24.752;2023-05-20T09:22:37;99147.25;;;26.27;47.09
10948;BME280;5526;42.070;24.752;2023-05-20T09:25:05;99162.97;;;25.90;47.16
10948;BME280;5526;42.070;24.752;2023-05-20T09:27:32;99163.94;;;25.82;48.67
10948;BME280;5526;42.070;24.752;2023-05-20T09:30:00;99151.41;;;25.90;48.84
10948;BME280;5526;42.070;24.752;2023-05-20T09:32:27;99157.53;;;25.71;47.59
10948;BME280;5526;42.070;24.752;2023-05-20T09:34:54;99155.19;;;26.20;46.61
10948;BME280;5526;42.070;24.752;2023-05-20T09:37:24;99145.75;;;26.10;48.13
10948;BME280;5526;42.070;24.752;2023-05-20T09:39:57;99159.56;;;25.93;47.97
10948;BME280;5526;42.070;24.752;2023-05-20T09:42:28;99158.72;;;26.05;48.87
10948;BME280;5526;42.070;24.752;2023-05-20T09:44:58;99149.19;;;26.26;47.55
10948;BME280;5526;42.070;24.752;2023-05-20T09:47:26;99157.53;;;26.37;47.25
10948;BME280;5526;42.070;24.752;2023-05-20T09:49:53;99153.97;;;26.33;46.27
10948;BME280;5526;42.070;24.752;2023-05-20T09:52:21;99140.66;;;26.59;45.55
10948;BME280;5526;42.070;24.752;2023-05-20T09:54:48;99147.44;;;26.53;47.68
10948;BME280;5526;42.070;24.752;2023-05-20T09:57:18;99144.69;;;26.49;47.50
10948;BME280;5526;42.070;24.752;2023-05-20T09:59:46;99140.25;;;26.41;47.57
10948;BME280;5526;42.070;24.752;2023-05-20T10:02:13;99138.78;;;26.09;49.55
10948;BME280;5526;42.070;24.752;2023-05-20T10:04:44;99132.09;;;26.38;50.00
10948;BME280;5526;42.070;24.752;2023-05-20T10:07:45;99137.75;;;26.86;48.40
10948;BME280;5526;42.070;24.752;2023-05-20T10:10:27;99122.28;;;27.06;48.03
10948;BME280;5526;42.070;24.752;2023-05-20T10:13:04;99129.06;;;27.38;46.63
10948;BME280;5526;42.070;24.752;2023-05-20T10:15:50;99122.22;;;27.44;44.58
10948;BME280;5526;42.070;24.752;2023-05-20T10:18:33;99131.31;;;27.32;46.47
10948;BME280;5526;42.070;24.752;2023-05-20T10:21:14;99123.25;;;26.75;47.04
10948;BME280;5526;42.070;24.752;2023-05-20T10:23:41;99133.25;;;26.56;46.81
10948;BME280;5526;42.070;24.752;2023-05-20T10:26:09;99126.13;;;26.29;48.59
10948;BME280;5526;42.070;24.752;2023-05-20T10:28:39;99115.31;;;26.29;49.34
10948;BME280;5526;42.070;24.752;2023-05-20T10:31:17;99112.53;;;26.25;49.19
10948;BME280;5526;42.070;24.752;2023-05-20T10:33:45;99109.66;;;26.53;48.29
10948;BME280;5526;42.070;24.752;2023-05-20T10:36:22;99116.34;;;26.59;47.43
10948;BME280;5526;42.070;24.752;2023-05-20T10:38:54;99109.50;;;26.46;46.38
10948;BME280;5526;42.070;24.752;2023-05-20T10:41:23;99126.38;;;25.74;46.34
10948;BME280;5526;42.070;24.752;2023-05-20T10:44:03;99120.00;;;24.92;43.46
10948;BME280;5526;42.070;24.752;2023-05-20T10:46:31;99120.41;;;25.22;45.41
10948;BME280;5526;42.070;24.752;2023-05-20T10:49:01;99118.59;;;25.26;43.29
10948;BME280;5526;42.070;24.752;2023-05-20T10:51:29;99126.38;;;25.00;44.99
10948;BME280;5526;42.070;24.752;2023-05-20T10:53:57;99123.50;;;24.65;47.23
10948;BME280;5526;42.070;24.752;2023-05-20T10:56:25;99112.19;;;24.47;48.67
10948;BME280;5526;42.070;24.752;2023-05-20T10:58:53;99131.66;;;24.17;51.70
10948;BME280;5526;42.070;24.752;2023-05-20T11:01:25;99129.97;;;24.36;51.34
10948;BME280;5526;42.070;24.752;2023-05-20T11:03:53;99131.38;;;24.58;52.41
10948;BME280;5526;42.070;24.752;2023-05-20T11:06:27;99125.84;;;24.67;51.67
10948;BME280;5526;42.070;24.752;2023-05-20T11:08:55;99126.94;;;24.38;52.08
10948;BME280;5526;42.070;24.752;2023-05-20T11:11:29;99128.78;;;23.98;53.37
10948;BME280;5526;42.070;24.752;2023-05-20T11:13:56;99126.97;;;24.02;53.09
10948;BME280;5526;42.070;24.752;2023-05-20T11:16:26;99126.53;;;24.00;53.77
10948;BME280;5526;42.070;24.752;2023-05-20T11:18:53;99115.44;;;23.89;54.15
10948;BME280;5526;42.070;24.752;2023-05-20T11:21:21;99116.47;;;23.97;54.29
10948;BME280;5526;42.070;24.752;2023-05-20T11:23:50;99115.78;;;24.00;54.46
10948;BME280;5526;42.070;24.752;2023-05-20T11:26:19;99121.41;;;23.95;54.86
10948;BME280;5526;42.070;24.752;2023-05-20T11:28:47;99116.88;;;23.87;55.41
10948;BME280;5526;42.070;24.752;2023-05-20T11:31:14;99116.56;;;24.00;55.74
10948;BME280;5526;42.070;24.752;2023-05-20T11:33:42;99121.59;;;24.02;56.73
10948;BME280;5526;42.070;24.752;2023-05-20T11:36:10;99103.09;;;24.12;56.29
10948;BME280;5526;42.070;24.752;2023-05-20T11:38:39;99102.38;;;24.27;55.27
10948;BME280;5526;42.070;24.752;2023-05-20T11:41:07;99099.00;;;24.42;55.13
10948;BME280;5526;42.070;24.752;2023-05-20T11:43:34;99104.84;;;24.44;53.36
10948;BME280;5526;42.070;24.752;2023-05-20T11:46:01;99100.53;;;24.43;52.21
10948;BME280;5526;42.070;24.752;2023-05-20T11:48:28;99106.88;;;24.23;52.48
10948;BME280;5526;42.070;24.752;2023-05-20T11:50:57;99106.88;;;24.23;52.62
10948;BME280;5526;42.070;24.752;2023-05-20T11:53:24;99098.78;;;24.35;52.44
10948;BME280;5526;42.070;24.752;2023-05-20T11:55:52;99113.31;;;24.46;52.27
10948;BME280;5526;42.070;24.752;2023-05-20T11:58:22;99108.25;;;24.17;53.10
10948;BME280;5526;42.070;24.752;2023-05-20T12:00:49;99102.88;;;24.17;53.32
10948;BME280;5526;42.070;24.752;2023-05-20T12:03:16;99107.53;;;24.44;53.80
10948;BME280;5526;42.070;24.752;2023-05-20T12:05:43;99095.63;;;24.45;52.98
10948;BME280;5526;42.070;24.752;2023-05-20T12:08:14;99100.50;;;24.68;52.33
10948;BME280;5526;42.070;24.752;2023-05-20T12:10:41;99090.50;;;24.68;52.96
10948;BME280;5526;42.070;24.752;2023-05-20T12:13:09;99089.28;;;24.66;53.26
10948;BME280;5526;42.070;24.752;2023-05-20T12:15:38;99092.69;;;24.50;53.89
10948;BME280;5526;42.070;24.752;2023-05-20T12:18:05;99092.94;;;24.45;54.66
10948;BME280;5526;42.070;24.752;2023-05-20T12:20:32;99096.16;;;24.51;54.63
10948;BME280;5526;42.070;24.752;2023-05-20T12:23:01;99087.63;;;24.61;54.09
10948;BME280;5526;42.070;24.752;2023-05-20T12:25:30;99085.47;;;24.67;54.51
10948;BME280;5526;42.070;24.752;2023-05-20T12:27:58;99091.25;;;24.41;56.17
10948;BME280;5526;42.070;24.752;2023-05-20T12:30:25;99079.22;;;24.50;54.64
10948;BME280;5526;42.070;24.752;2023-05-20T12:32:52;99083.94;;;24.53;55.27
10948;BME280;5526;42.070;24.752;2023-05-20T12:35:24;99078.63;;;24.57;54.31
10948;BME280;5526;42.070;24.752;2023-05-20T12:37:53;99083.59;;;24.55;54.84
10948;BME280;5526;42.070;24.752;2023-05-20T12:40:21;99073.69;;;24.71;55.24
10948;BME280;5526;42.070;24.752;2023-05-20T12:42:49;99068.78;;;24.89;53.04
10948;BME280;5526;42.070;24.752;2023-05-20T12:45:17;99062.63;;;25.04;51.85
10948;BME280;5526;42.070;24.752;2023-05-20T12:47:44;99062.88;;;25.14;51.52
10948;BME280;5526;42.070;24.752;2023-05-20T12:50:11;99062.75;;;25.38;51.16
10948;BME280;5526;42.070;24.752;2023-05-20T12:52:38;99049.41;;;25.61;49.86
10948;BME280;5526;42.070;24.752;2023-05-20T12:55:06;99041.13;;;25.85;47.86
10948;BME280;5526;42.070;24.752;2023-05-20T12:57:38;99036.41;;;26.35;47.18
10948;BME280;5526;42.070;24.752;2023-05-20T13:00:08;99029.38;;;26.50;46.33
10948;BME280;5526;42.070;24.752;2023-05-20T13:02:36;99030.88;;;26.66;45.64
10948;BME280;5526;42.070;24.752;2023-05-20T13:05:04;99020.84;;;26.67;44.00
10948;BME280;5526;42.070;24.752;2023-05-20T13:07:31;99024.97;;;26.80;44.22
10948;BME280;5526;42.070;24.752;2023-05-20T13:09:58;99017.16;;;26.37;43.08
10948;BME280;5526;42.070;24.752;2023-05-20T13:12:26;99015.38;;;26.25;43.88
10948;BME280;5526;42.070;24.752;2023-05-20T13:14:53;99015.34;;;26.22;43.68
10948;BME280;5526;42.070;24.752;2023-05-20T13:17:21;99012.28;;;26.04;43.74
10948;BME280;5526;42.070;24.752;2023-05-20T13:19:48;99010.72;;;25.88;45.37
10948;BME280;5526;42.070;24.752;2023-05-20T13:22:16;99017.81;;;25.77;47.96
10948;BME280;5526;42.070;24.752;2023-05-20T13:24:44;99016.75;;;25.47;51.29
10948;BME280;5526;42.070;24.752;2023-05-20T13:27:11;99011.25;;;25.28;54.32
10948;BME280;5526;42.070;24.752;2023-05-20T13:29:38;99009.88;;;25.49;51.11
10948;BME280;5526;42.070;24.752;2023-05-20T13:32:06;98999.69;;;25.58;48.43
10948;BME280;5526;42.070;24.752;2023-05-20T13:34:35;98996.50;;;25.72;47.63
10948;BME280;5526;42.070;24.752;2023-05-20T13:37:03;98995.78;;;25.56;48.96
10948;BME280;5526;42.070;24.752;2023-05-20T13:39:30;98989.81;;;25.47;48.61
10948;BME280;5526;42.070;24.752;2023-05-20T13:41:57;98978.34;;;25.50;48.39
10948;BME280;5526;42.070;24.752;2023-05-20T13:44:24;98983.38;;;25.20;48.10
10948;BME280;5526;42.070;24.752;2023-05-20T13:46:52;98991.88;;;25.38;47.34
10948;BME280;5526;42.070;24.752;2023-05-20T13:49:19;98988.06;;;25.23;48.42
10948;BME280;5526;42.070;24.752;2023-05-20T13:51:48;98990.44;;;24.50;49.34
10948;BME280;5526;42.070;24.752;2023-05-20T13:54:15;98997.94;;;24.29;49.92